SAWG

Piloto Civil N. Fernández Airport

Rio Gallegos, Argentina
TAF SAWG 162300Z 1700/1724 27005KT 9999 BKN040 TXM01/1719Z TNM06/1711Z BECMG 1703/1705 25010KT 9999 BKN008
Issued Valid From Valid To
Jul-16 @ 23:00 UTC
(an hour ago)
Jul-17 @ 00:00 UTC
(26 minutes ago)
Jul-18 @ 00:00 UTC
(in 24 hours)
Jul-17 @ 00:00 to Jul-17 @ 03:00
TAF SAWG 162300Z 1700/1724 27005KT 9999 BKN040 TXM01/1719Z TNM06/1711Z
Wind Visibility Clouds
270° at 5 knots 10,000+ meters
  • Broken at 4,000' AGL
Becoming Jul-17 @ 03:00 to Jul-18 @ 00:00
BECMG 1703/1705 25010KT 9999 BKN008
Wind Visibility Clouds
250° at 10 knots 10,000+ meters
  • Broken at 800' AGL
TAF SAWG 162300Z 1700/1724 27005KT 9999 BKN040 TXM01/1719Z TNM06/1711Z BECMG 1703/1705 25010KT 9999 BKN008
Issued Jul-16 @ 23:00 UTC
(an hour ago)
Valid From Jul-17 @ 00:00 UTC
(26 minutes ago)
Valid To Jul-18 @ 00:00 UTC
(in 24 hours)
Jul-17 @ 00:00 - Jul-17 @ 03:00
Wind Visibility
270° at 5 knots 10,000+ meters
Clouds
  • Broken at 4,000' AGL
Becoming Jul-17 @ 03:00 - Jul-18 @ 00:00
Wind Visibility
250° at 10 knots 10,000+ meters
Clouds
  • Broken at 800' AGL